Time;durP1;ratioP1;P1;durP2;ratioP2;P2;SDS_P1;SDS_P2;PMS_P1;PMS_P2;Temp;Humidity;BMP_temperature;BMP_pressure;BME280_temperature;BME280_humidity;BME280_pressure;Samples;Min_cycle;Max_cycle;Signal;HPM_P1;HPM_P2
2021/04/18 00:02:03;;;;;;;;;;;;;;;17.49;57.27;101171.31;4822318;29;1924;-66
2021/04/18 00:04:30;;;;;;;;;;;;;;;17.49;57.21;101165.19;4822749;29;789;-66
2021/04/18 00:06:56;;;;;;;;;;;;;;;17.49;57.01;101175.72;4822380;29;1395;-66
2021/04/18 00:09:22;;;;;;;;;;;;;;;17.47;57.13;101172.31;4822603;29;881;-66
2021/04/18 00:11:49;;;;;;;;;;;;;;;17.46;57.23;101170.59;4822503;29;1287;-65
2021/04/18 00:14:15;;;;;;;;;;;;;;;17.45;57.28;101161.81;4821150;29;1550;-65
2021/04/18 00:16:41;;;;;;;;;;;;;;;17.45;57.04;101161.81;4820695;29;1295;-66
2021/04/18 00:19:08;;;;;;;;;;;;;;;17.45;57.10;101159.19;4820937;29;849;-67
2021/04/18 00:21:34;;;;;;;;;;;;;;;17.45;57.17;101151.28;4822165;29;1997;-66
2021/04/18 00:24:02;;;;;;;;;;;;;;;17.44;57.08;101146.97;4822067;29;973;-65
2021/04/18 00:26:28;;;;;;;;;;;;;;;17.43;57.06;101150.53;4822235;29;1294;-65
2021/04/18 00:28:55;;;;;;;;;;;;;;;17.42;57.18;101140.91;4821089;29;848;-67
2021/04/18 00:31:21;;;;;;;;;;;;;;;17.42;57.23;101143.53;4820975;29;1298;-66
2021/04/18 00:33:48;;;;;;;;;;;;;;;17.42;57.11;101142.66;4822072;29;839;-65
2021/04/18 00:36:27;;;;;;;;;;;;;;;17.40;57.28;101140.13;4820541;29;1292;-67
2021/04/18 00:38:54;;;;;;;;;;;;;;;17.39;57.07;101137.53;4820467;29;1545;-67
2021/04/18 00:41:20;;;;;;;;;;;;;;;17.39;57.38;101135.75;4821459;29;1907;-66
2021/04/18 00:43:46;;;;;;;;;;;;;;;17.38;57.07;101139.34;4820655;29;776;-66
2021/04/18 00:46:13;;;;;;;;;;;;;;;17.37;57.15;101129.72;4821897;29;1324;-67
2021/04/18 00:48:44;;;;;;;;;;;;;;;17.37;57.14;101123.59;4819999;29;940;-68
2021/04/18 00:51:11;;;;;;;;;;;;;;;17.36;57.03;101132.41;4821934;29;1425;-67
2021/04/18 00:53:37;;;;;;;;;;;;;;;17.37;57.08;101123.59;4822211;29;1105;-68
2021/04/18 00:56:05;;;;;;;;;;;;;;;17.37;57.12;101126.22;4821712;29;1328;-66
2021/04/18 00:58:32;;;;;;;;;;;;;;;17.37;57.23;101126.22;4820271;29;1649;-67
2021/04/18 01:00:58;;;;;;;;;;;;;;;17.34;57.36;101124.59;4820091;29;1383;-67
2021/04/18 01:03:25;;;;;;;;;;;;;;;17.35;57.26;101125.47;4821634;29;1963;-67
2021/04/18 01:05:51;;;;;;;;;;;;;;;17.34;57.17;101127.22;4820310;29;1066;-65
2021/04/18 01:08:17;;;;;;;;;;;;;;;17.33;57.12;101128.16;4820580;29;1437;-67
2021/04/18 01:10:44;;;;;;;;;;;;;;;17.33;57.11;101117.63;4821567;29;822;-66
2021/04/18 01:13:11;;;;;;;;;;;;;;;17.33;57.24;101116.75;4821154;29;1234;-66
2021/04/18 01:15:40;;;;;;;;;;;;;;;17.32;57.19;101122.97;4821701;29;773;-67
2021/04/18 01:18:07;;;;;;;;;;;;;;;17.31;57.40;101114.19;4820052;29;1664;-68
2021/04/18 01:20:33;;;;;;;;;;;;;;;17.30;57.43;101111.63;4821720;29;985;-67
2021/04/18 01:23:00;;;;;;;;;;;;;;;17.30;57.42;101114.25;4820961;29;1911;-68
2021/04/18 01:25:27;;;;;;;;;;;;;;;17.29;57.38;101107.31;4821549;29;849;-67
2021/04/18 01:27:55;;;;;;;;;;;;;;;17.29;57.74;101115.19;4820008;29;1435;-68
2021/04/18 01:30:25;;;;;;;;;;;;;;;17.29;57.51;101107.31;4821449;29;1355;-67
2021/04/18 01:32:53;;;;;;;;;;;;;;;17.27;57.30;101102.09;4821098;29;1364;-68
2021/04/18 01:35:20;;;;;;;;;;;;;;;17.27;57.54;101106.50;4820038;29;824;-67
2021/04/18 01:37:47;;;;;;;;;;;;;;;17.27;57.15;101099.47;4819765;29;1359;-69
2021/04/18 01:40:20;;;;;;;;;;;;;;;17.26;57.38;101103.03;4821391;29;839;-67
2021/04/18 01:42:47;;;;;;;;;;;;;;;17.26;57.40;101099.53;4820765;29;1911;-67
2021/04/18 01:45:15;;;;;;;;;;;;;;;17.26;57.37;101099.53;4821539;29;788;-67
2021/04/18 01:47:42;;;;;;;;;;;;;;;17.24;57.46;101091.69;4820753;29;1297;-67
2021/04/18 01:50:10;;;;;;;;;;;;;;;17.24;57.11;101096.09;4819674;29;1217;-67
2021/04/18 01:52:38;;;;;;;;;;;;;;;17.23;57.56;101084.75;4821500;29;1283;-67
2021/04/18 01:55:06;;;;;;;;;;;;;;;17.23;57.29;101090.00;4821177;29;903;-67
2021/04/18 01:57:33;;;;;;;;;;;;;;;17.23;57.04;101083.88;4804546;29;1278;-67
2021/04/18 02:00:00;;;;;;;;;;;;;;;17.22;57.07;101082.16;4821106;29;971;-70
2021/04/18 02:02:26;;;;;;;;;;;;;;;17.23;56.97;101083.88;4820977;29;1981;-68
2021/04/18 02:04:53;;;;;;;;;;;;;;;17.22;57.07;101076.91;4819338;29;1242;-67
2021/04/18 02:07:20;;;;;;;;;;;;;;;17.21;57.31;101085.72;4819321;29;1275;-66
2021/04/18 02:09:46;;;;;;;;;;;;;;;17.21;57.16;101083.06;4820719;29;1228;-68
2021/04/18 02:12:13;;;;;;;;;;;;;;;17.19;57.08;101072.63;4820700;29;1378;-67
2021/04/18 02:14:40;;;;;;;;;;;;;;;17.20;57.06;101081.38;4820860;29;769;-68
2021/04/18 02:17:06;;;;;;;;;;;;;;;17.18;57.03;101076.19;4820830;29;1298;-68
2021/04/18 02:19:33;;;;;;;;;;;;;;;17.18;57.13;101077.94;4819415;29;821;-69
2021/04/18 02:21:59;;;;;;;;;;;;;;;17.19;57.25;101079.66;4820873;29;1907;-67
2021/04/18 02:24:26;;;;;;;;;;;;;;;17.17;57.16;101074.50;4820402;29;1093;-68
2021/04/18 02:26:52;;;;;;;;;;;;;;;17.19;57.24;101079.66;4819021;29;1286;-68
2021/04/18 02:29:19;;;;;;;;;;;;;;;17.17;57.37;101076.25;4820799;29;876;-67
2021/04/18 02:31:45;;;;;;;;;;;;;;;17.17;57.06;101081.53;4820482;29;1290;-68
2021/04/18 02:34:12;;;;;;;;;;;;;;;17.15;57.06;101086.84;4819253;29;950;-68
2021/04/18 02:36:38;;;;;;;;;;;;;;;17.14;56.96;101085.16;4818913;29;1940;-67
2021/04/18 02:39:05;;;;;;;;;;;;;;;17.15;57.24;101086.00;4820509;29;812;-68
2021/04/18 02:41:32;;;;;;;;;;;;;;;17.14;57.06;101082.53;4820249;29;1920;-68
2021/04/18 02:43:59;;;;;;;;;;;;;;;17.13;57.13;101086.06;4820846;29;913;-68
2021/04/18 02:46:25;;;;;;;;;;;;;;;17.12;57.08;101081.72;4820370;29;1399;-68
2021/04/18 02:48:51;;;;;;;;;;;;;;;17.12;56.95;101080.84;4819081;29;1271;-69
2021/04/18 02:51:17;;;;;;;;;;;;;;;17.11;56.69;101090.56;4820449;29;1384;-68
2021/04/18 02:53:44;;;;;;;;;;;;;;;17.09;56.86;101081.00;4820440;29;1267;-68
2021/04/18 02:56:30;;;;;;;;;;;;;;;17.09;56.78;101081.84;4820351;29;1668;-67
2021/04/18 02:58:56;;;;;;;;;;;;;;;17.09;56.84;101081.84;4820234;29;909;-67
2021/04/18 03:01:22;;;;;;;;;;;;;;;17.08;56.68;101080.16;4818826;29;1907;-68
2021/04/18 03:03:49;;;;;;;;;;;;;;;17.08;56.59;101084.56;4820200;29;813;-68
2021/04/18 03:06:15;;;;;;;;;;;;;;;17.08;56.75;101087.22;4820230;29;1287;-67
2021/04/18 03:08:42;;;;;;;;;;;;;;;17.07;56.56;101075.81;4818940;29;765;-67
2021/04/18 03:11:08;;;;;;;;;;;;;;;17.07;56.50;101082.84;4819989;29;1314;-67
2021/04/18 03:13:35;;;;;;;;;;;;;;;17.05;56.35;101085.56;4820188;29;868;-69
2021/04/18 03:16:02;;;;;;;;;;;;;;;17.05;56.48;101085.56;4820056;29;1269;-68
2021/04/18 03:18:28;;;;;;;;;;;;;;;17.03;56.35;101087.41;4820302;29;797;-68
2021/04/18 03:20:55;;;;;;;;;;;;;;;17.02;56.33;101079.59;4819764;29;1045;-67
2021/04/18 03:23:21;;;;;;;;;;;;;;;17.02;56.34;101082.22;4820087;29;1911;-68
2021/04/18 03:25:49;;;;;;;;;;;;;;;17.01;56.45;101077.88;4819765;29;909;-68
2021/04/18 03:28:16;;;;;;;;;;;;;;;17.02;56.50;101076.94;4818313;29;1401;-69
2021/04/18 03:30:42;;;;;;;;;;;;;;;16.99;56.30;101080.56;4820030;29;805;-69
2021/04/18 03:33:08;;;;;;;;;;;;;;;17.00;56.48;101082.25;4820085;29;1408;-68
2021/04/18 03:35:34;;;;;;;;;;;;;;;16.99;56.33;101082.34;4820929;29;851;-67
2021/04/18 03:38:02;;;;;;;;;;;;;;;16.99;56.47;101088.47;4821696;29;1354;-67
2021/04/18 03:40:32;;;;;;;;;;;;;;;16.97;56.24;101079.78;4821607;29;1293;-66
2021/04/18 03:42:58;;;;;;;;;;;;;;;16.97;56.34;101081.53;4822571;29;1907;-67
2021/04/18 03:45:24;;;;;;;;;;;;;;;16.96;56.35;101082.50;4823202;29;875;-67
2021/04/18 03:47:50;;;;;;;;;;;;;;;16.97;56.13;101081.53;4821768;29;1357;-66
2021/04/18 03:50:17;;;;;;;;;;;;;;;16.95;56.45;101076.38;4822868;29;800;-68
2021/04/18 03:52:44;;;;;;;;;;;;;;;16.94;56.05;101083.41;4822870;29;1322;-68
2021/04/18 03:55:10;;;;;;;;;;;;;;;16.94;56.18;101078.13;4822835;29;781;-67
2021/04/18 03:57:37;;;;;;;;;;;;;;;16.94;56.00;101087.81;4823142;29;1351;-68
2021/04/18 04:00:04;;;;;;;;;;;;;;;16.93;55.93;101086.13;4822997;29;911;-68
2021/04/18 04:02:30;;;;;;;;;;;;;;;16.92;55.87;101090.50;4822693;29;1912;-68
2021/04/18 04:04:56;;;;;;;;;;;;;;;16.92;55.54;101092.28;4822830;29;1042;-67
2021/04/18 04:07:23;;;;;;;;;;;;;;;16.91;55.71;101093.19;4822417;29;1300;-67
2021/04/18 04:09:49;;;;;;;;;;;;;;;16.91;55.92;101087.94;4822531;29;990;-68
2021/04/18 04:12:15;;;;;;;;;;;;;;;16.90;55.61;101091.50;4821099;29;1497;-68
2021/04/18 04:14:41;;;;;;;;;;;;;;;16.88;55.76;101091.56;4822776;29;777;-67
2021/04/18 04:17:08;;;;;;;;;;;;;;;16.88;55.41;101086.28;4822717;29;1246;-67
2021/04/18 04:19:34;;;;;;;;;;;;;;;16.88;55.59;101090.69;4822634;29;798;-67
2021/04/18 04:22:01;;;;;;;;;;;;;;;16.87;55.54;101081.94;4822355;29;1911;-68
2021/04/18 04:24:27;;;;;;;;;;;;;;;16.87;55.67;101092.47;4821381;29;1252;-68
2021/04/18 04:26:53;;;;;;;;;;;;;;;16.86;55.55;101088.16;4820973;29;1403;-68
2021/04/18 04:29:20;;;;;;;;;;;;;;;16.86;55.83;101090.78;4822267;29;1190;-67
2021/04/18 04:31:46;;;;;;;;;;;;;;;16.87;55.73;101091.66;4822367;29;1377;-67
2021/04/18 04:34:12;;;;;;;;;;;;;;;16.85;55.63;101096.97;4820676;29;1248;-68
2021/04/18 04:36:38;;;;;;;;;;;;;;;16.84;55.69;101084.72;4822122;29;1284;-68
2021/04/18 04:39:06;;;;;;;;;;;;;;;16.85;55.68;101090.84;4822024;29;1170;-67
2021/04/18 04:41:32;;;;;;;;;;;;;;;16.84;55.57;101089.97;4821760;29;1907;-67
2021/04/18 04:43:59;;;;;;;;;;;;;;;16.83;55.52;101088.28;4822577;29;857;-68
2021/04/18 04:46:26;;;;;;;;;;;;;;;16.83;55.66;101100.59;4822098;29;1307;-68
2021/04/18 04:48:52;;;;;;;;;;;;;;;16.83;55.49;101098.81;4822335;29;846;-69
2021/04/18 04:51:18;;;;;;;;;;;;;;;16.82;55.37;101101.50;4822202;29;1282;-68
2021/04/18 04:53:45;;;;;;;;;;;;;;;16.81;55.46;101097.16;4822368;29;1307;-69
2021/04/18 04:56:11;;;;;;;;;;;;;;;16.81;55.50;101103.25;4821949;29;1373;-68
2021/04/18 04:58:37;;;;;;;;;;;;;;;16.81;55.40;101108.53;4822197;29;769;-69
2021/04/18 05:01:03;;;;;;;;;;;;;;;16.82;55.28;101109.38;4821969;29;1282;-68
2021/04/18 05:03:30;;;;;;;;;;;;;;;16.80;55.38;101106.84;4822046;29;1915;-68
2021/04/18 05:05:57;;;;;;;;;;;;;;;16.80;55.44;101111.25;4822109;29;1183;-68
2021/04/18 05:08:24;;;;;;;;;;;;;;;16.80;55.38;101113.88;4821771;29;777;-69
2021/04/18 05:10:50;;;;;;;;;;;;;;;16.79;55.35;101120.91;4821724;29;1156;-68
2021/04/18 05:13:16;;;;;;;;;;;;;;;16.78;55.48;101121.81;4821748;29;1223;-67
2021/04/18 05:15:42;;;;;;;;;;;;;;;16.78;55.29;101121.81;4820226;29;1327;-67
2021/04/18 05:18:09;;;;;;;;;;;;;;;16.78;55.27;101123.59;4821924;29;1284;-67
2021/04/18 05:20:35;;;;;;;;;;;;;;;16.77;55.26;101122.75;4821649;29;888;-67
2021/04/18 05:23:01;;;;;;;;;;;;;;;16.77;55.40;101127.16;4821171;29;1996;-67
2021/04/18 05:25:28;;;;;;;;;;;;;;;16.77;55.28;101130.66;4821772;29;1098;-67
2021/04/18 05:27:54;;;;;;;;;;;;;;;16.77;55.36;101135.91;4821792;29;1356;-68
2021/04/18 05:30:21;;;;;;;;;;;;;;;16.76;55.47;101131.56;4821330;29;789;-68
2021/04/18 05:32:47;;;;;;;;;;;;;;;16.77;55.27;101135.03;4821475;29;1372;-68
2021/04/18 05:35:13;;;;;;;;;;;;;;;16.75;55.21;101137.72;4820021;29;1446;-68
2021/04/18 05:37:40;;;;;;;;;;;;;;;16.74;55.46;101145.69;4821056;29;1276;-68
2021/04/18 05:40:06;;;;;;;;;;;;;;;16.74;54.96;101141.28;4821188;29;1127;-67
2021/04/18 05:42:33;;;;;;;;;;;;;;;16.74;55.26;101143.94;4820820;29;1915;-69
2021/04/18 05:44:59;;;;;;;;;;;;;;;16.73;55.28;101144.84;4821218;29;1039;-69
2021/04/18 05:47:25;;;;;;;;;;;;;;;16.73;55.17;101155.38;4821360;29;1283;-66
2021/04/18 05:49:52;;;;;;;;;;;;;;;16.73;55.38;101155.38;4821003;29;808;-67
2021/04/18 05:52:19;;;;;;;;;;;;;;;16.77;55.18;101166.63;4821227;29;1274;-67
2021/04/18 05:54:45;;;;;;;;;;;;;;;16.75;55.39;101166.66;4821227;29;860;-67
2021/04/18 05:57:11;;;;;;;;;;;;;;;16.74;55.58;101167.59;4818881;29;1652;-64
2021/04/18 05:59:37;;;;;;;;;;;;;;;16.74;55.45;101164.97;4819305;29;797;-67
2021/04/18 06:02:04;;;;;;;;;;;;;;;16.74;55.50;101164.13;4818596;29;1911;-68
2021/04/18 06:04:31;;;;;;;;;;;;;;;16.74;55.76;101169.38;4819960;29;868;-69
2021/04/18 06:06:57;;;;;;;;;;;;;;;16.73;55.74;101168.50;4820166;29;1327;-69
2021/04/18 06:09:23;;;;;;;;;;;;;;;16.74;55.71;101172.00;4819964;29;848;-68
2021/04/18 06:11:50;;;;;;;;;;;;;;;16.73;55.73;101172.91;4819912;29;1228;-68
2021/04/18 06:14:16;;;;;;;;;;;;;;;16.74;55.75;101177.28;4819912;29;828;-69
2021/04/18 06:16:42;;;;;;;;;;;;;;;16.72;55.74;101171.19;4819945;29;1380;-68
2021/04/18 06:19:09;;;;;;;;;;;;;;;16.72;55.69;101177.31;4818321;29;844;-70
2021/04/18 06:21:35;;;;;;;;;;;;;;;16.73;55.60;101178.19;4803139;29;1926;-68
2021/04/18 06:24:02;;;;;;;;;;;;;;;16.74;55.66;101179.91;4818201;29;1907;-69
2021/04/18 06:26:28;;;;;;;;;;;;;;;16.72;55.59;101177.31;4818189;29;1372;-69
2021/04/18 06:28:54;;;;;;;;;;;;;;;16.73;55.68;101184.31;4818097;29;1342;-68
2021/04/18 06:31:21;;;;;;;;;;;;;;;16.72;55.52;101186.97;4819348;29;1333;-70
2021/04/18 06:33:47;;;;;;;;;;;;;;;16.71;55.38;101186.16;4819549;29;1243;-70
2021/04/18 06:36:14;;;;;;;;;;;;;;;16.72;55.71;101181.72;4819690;29;1223;-70
2021/04/18 06:38:40;;;;;;;;;;;;;;;16.73;55.60;101186.06;4818041;29;734;-68
2021/04/18 06:41:08;;;;;;;;;;;;;;;16.72;55.33;101187.84;4818126;29;1258;-68
2021/04/18 06:43:36;;;;;;;;;;;;;;;16.72;55.45;101189.59;4820018;29;1964;-67
2021/04/18 06:46:04;;;;;;;;;;;;;;;16.71;55.39;101191.41;4819107;29;1282;-68
2021/04/18 06:48:33;;;;;;;;;;;;;;;16.71;55.46;101194.03;4818176;29;795;-72
2021/04/18 06:51:00;;;;;;;;;;;;;;;16.71;55.55;101195.81;4819695;29;1561;-65
2021/04/18 06:53:26;;;;;;;;;;;;;;;16.71;55.46;101196.66;4820116;29;876;-67
2021/04/18 06:55:53;;;;;;;;;;;;;;;16.71;55.60;101190.56;4818494;29;1094;-68
2021/04/18 06:58:19;;;;;;;;;;;;;;;16.71;55.49;101193.19;4803525;29;1336;-67
2021/04/18 07:00:45;;;;;;;;;;;;;;;16.71;55.40;101199.31;4820168;29;821;-68
2021/04/18 07:03:13;;;;;;;;;;;;;;;16.71;55.48;101201.94;4819540;29;1919;-69
2021/04/18 07:05:46;;;;;;;;;;;;;;;16.74;55.45;101203.56;4813565;29;1509;-66
2021/04/18 07:08:17;;;;;;;;;;;;;;;16.72;55.23;101202.75;4818418;29;1490;-67
2021/04/18 07:10:44;;;;;;;;;;;;;;;16.72;55.25;101208.88;4821125;29;1243;-68
2021/04/18 07:13:14;;;;;;;;;;;;;;;16.72;55.39;101206.25;4821671;29;1415;-68
2021/04/18 07:15:42;;;;;;;;;;;;;;;16.73;55.60;101205.34;4821322;29;1569;-68
2021/04/18 07:18:09;;;;;;;;;;;;;;;16.72;55.76;101208.03;4822738;29;1408;-69
2021/04/18 07:20:52;;;;;;;;;;;;;;;16.72;55.60;101206.25;4822470;29;1281;-69
2021/04/18 07:23:34;;;;;;;;;;;;;;;16.73;55.74;101204.47;4820989;29;1991;-69
2021/04/18 07:26:16;;;;;;;;;;;;;;;16.74;55.86;101206.22;4822262;29;1339;-65
2021/04/18 07:28:42;;;;;;;;;;;;;;;16.74;55.97;101209.69;4825062;29;1106;-69
2021/04/18 07:31:09;;;;;;;;;;;;;;;16.74;56.78;101207.06;4823314;29;1289;-71
2021/04/18 07:33:55;;;;;;;;;;;;;;;16.76;56.09;101209.63;4822987;29;852;-70
2021/04/18 07:36:22;;;;;;;;;;;;;;;16.76;56.17;101199.97;4821473;29;1545;-70
2021/04/18 07:38:53;;;;;;;;;;;;;;;16.74;56.08;101207.06;4822521;29;770;-69
2021/04/18 07:41:21;;;;;;;;;;;;;;;16.77;57.06;101212.19;4823166;29;1386;-72
2021/04/18 07:43:47;;;;;;;;;;;;;;;16.80;56.30;101217.34;4823245;29;1966;-69
2021/04/18 07:46:14;;;;;;;;;;;;;;;16.78;56.39;101210.41;4822953;29;1334;-68
2021/04/18 07:48:45;;;;;;;;;;;;;;;16.76;56.45;101213.13;4821451;29;1131;-70
2021/04/18 07:51:11;;;;;;;;;;;;;;;16.76;56.70;101215.75;4822936;29;1302;-68
2021/04/18 07:53:38;;;;;;;;;;;;;;;16.80;56.55;101209.44;4822031;29;1577;-69
2021/04/18 07:56:07;;;;;;;;;;;;;;;16.85;57.41;101209.25;4822618;29;1385;-71
2021/04/18 07:58:35;;;;;;;;;;;;;;;16.89;57.96;101211.69;4822907;29;883;-72
2021/04/18 08:01:02;;;;;;;;;;;;;;;16.91;56.96;101212.47;4822471;29;1297;-73
2021/04/18 08:03:28;;;;;;;;;;;;;;;16.90;57.64;101216.00;4822692;29;1982;-72
2021/04/18 08:05:55;;;;;;;;;;;;;;;16.88;58.07;101220.50;4821667;29;1190;-72
2021/04/18 08:08:21;;;;;;;;;;;;;;;16.87;58.58;101218.78;4822694;29;1329;-73
2021/04/18 08:10:49;;;;;;;;;;;;;;;16.86;58.72;101214.44;4822699;29;946;-74
2021/04/18 08:13:23;;;;;;;;;;;;;;;16.86;58.93;101219.72;4823511;29;1282;-74
2021/04/18 08:16:06;;;;;;;;;;;;;;;16.94;59.03;101227.28;4822238;29;1525;-78
2021/04/18 08:18:37;;;;;;;;;;;;;;;16.96;58.51;101222.81;4822735;29;840;-78
2021/04/18 08:21:22;;;;;;;;;;;;;;;16.99;59.09;101227.09;4821985;29;1359;-76
2021/04/18 08:23:49;;;;;;;;;;;;;;;17.02;59.31;101226.97;4822412;29;1907;-71
2021/04/18 08:26:16;;;;;;;;;;;;;;;17.07;59.46;101243.41;4822200;29;1279;-72
2021/04/18 08:28:55;;;;;;;;;;;;;;;17.07;59.12;101240.78;4821221;29;1620;-68
2021/04/18 08:31:28;;;;;;;;;;;;;;;17.03;59.26;101242.69;4821506;29;1281;-68
2021/04/18 08:34:01;;;;;;;;;;;;;;;16.98;59.70;101243.78;4821592;29;1458;-69
2021/04/18 08:36:29;;;;;;;;;;;;;;;16.98;59.67;101246.44;4820554;29;1305;-68
2021/04/18 08:39:05;;;;;;;;;;;;;;;16.99;59.19;101245.53;4822082;29;832;-69
2021/04/18 08:41:34;;;;;;;;;;;;;;;16.99;59.38;101238.50;4820199;29;1789;-72
2021/04/18 08:44:27;;;;;;;;;;;;;;;17.07;59.38;101246.91;4821932;29;1908;-72
2021/04/18 08:46:58;;;;;;;;;;;;;;;17.11;58.71;101243.22;4822717;29;1508;-75
2021/04/18 08:49:29;;;;;;;;;;;;;;;17.10;58.63;101245.91;4821689;29;793;-66
2021/04/18 08:51:57;;;;;;;;;;;;;;;17.16;58.67;101254.41;4822197;29;1216;-72
2021/04/18 08:54:24;;;;;;;;;;;;;;;17.14;58.04;101244.88;4820295;29;1258;-71
2021/04/18 08:56:56;;;;;;;;;;;;;;;17.13;57.99;101248.41;4821566;29;1302;-73
2021/04/18 08:59:22;;;;;;;;;;;;;;;17.14;58.42;101248.38;4804875;29;1818;-69
2021/04/18 09:01:54;;;;;;;;;;;;;;;17.14;58.32;101255.41;4820150;29;1634;-75
2021/04/18 09:04:21;;;;;;;;;;;;;;;17.10;57.68;101245.91;4820765;29;785;-72
2021/04/18 09:06:48;;;;;;;;;;;;;;;17.05;57.96;101248.75;4817323;29;1306;-70
2021/04/18 09:09:16;;;;;;;;;;;;;;;17.01;57.99;101251.56;4817807;29;1004;-72
2021/04/18 09:11:46;;;;;;;;;;;;;;;17.01;57.69;101254.19;4817238;29;1286;-73
2021/04/18 09:14:16;;;;;;;;;;;;;;;17.00;57.97;101255.97;4821081;29;804;-71
2021/04/18 09:16:43;;;;;;;;;;;;;;;17.00;57.56;101252.47;4820987;29;1387;-72
2021/04/18 09:19:27;;;;;;;;;;;;;;;17.01;57.73;101256.81;4819857;29;1477;-71
2021/04/18 09:22:04;;;;;;;;;;;;;;;17.00;58.04;101257.75;4821301;29;1380;-71
2021/04/18 09:24:33;;;;;;;;;;;;;;;16.99;57.89;101259.53;4821129;29;789;-70
2021/04/18 09:27:03;;;;;;;;;;;;;;;16.99;57.99;101263.94;4821429;29;1271;-71
2021/04/18 09:29:30;;;;;;;;;;;;;;;17.00;58.41;101257.75;4821225;29;965;-71
2021/04/18 09:31:56;;;;;;;;;;;;;;;17.01;58.45;101268.22;4821544;29;1309;-71
2021/04/18 09:34:23;;;;;;;;;;;;;;;16.99;58.05;101261.31;4819020;29;1310;-71
2021/04/18 09:36:55;;;;;;;;;;;;;;;17.08;58.18;101268.81;4821347;29;1282;-72
2021/04/18 09:39:24;;;;;;;;;;;;;;;17.07;58.28;101267.09;4821824;29;710;-70
2021/04/18 09:41:51;;;;;;;;;;;;;;;17.11;58.34;101273.97;4819673;29;1741;-70
2021/04/18 09:44:31;;;;;;;;;;;;;;;17.12;58.23;101270.38;4819693;29;1907;-69
2021/04/18 09:47:15;;;;;;;;;;;;;;;17.15;58.45;101278.16;4821020;29;1345;-69
2021/04/18 09:49:43;;;;;;;;;;;;;;;17.16;58.66;101269.34;4820786;29;828;-73
2021/04/18 09:52:10;;;;;;;;;;;;;;;17.17;57.09;101277.19;4819358;29;1402;-67
2021/04/18 09:54:37;;;;;;;;;;;;;;;17.13;57.92;101275.59;4820681;29;1141;-68
2021/04/18 09:57:20;;;;;;;;;;;;;;;17.13;58.19;101277.38;4820433;29;1353;-71
2021/04/18 10:00:05;;;;;;;;;;;;;;;17.11;57.70;101273.97;4820292;29;935;-72
2021/04/18 10:02:32;;;;;;;;;;;;;;;17.08;57.83;101266.19;4820580;29;1912;-69
2021/04/18 10:05:24;;;;;;;;;;;;;;;17.08;57.99;101268.81;4820492;29;912;-70
2021/04/18 10:08:10;;;;;;;;;;;;;;;17.09;57.87;101267.88;4819771;29;1303;-69
2021/04/18 10:10:37;;;;;;;;;;;;;;;17.08;57.99;101260.94;4818758;29;1339;-69
2021/04/18 10:13:03;;;;;;;;;;;;;;;17.07;57.67;101267.09;4820779;29;1397;-70
2021/04/18 10:15:31;;;;;;;;;;;;;;;17.07;57.68;101261.84;4820777;29;837;-68
2021/04/18 10:18:07;;;;;;;;;;;;;;;17.07;57.46;101251.31;4820397;29;1548;-69
2021/04/18 10:20:36;;;;;;;;;;;;;;;17.07;57.69;101248.69;4820729;29;750;-70
2021/04/18 10:23:03;;;;;;;;;;;;;;;17.08;58.20;101253.91;4820210;29;1919;-70
2021/04/18 10:25:29;;;;;;;;;;;;;;;17.07;58.26;101249.53;4820789;29;785;-68
2021/04/18 10:27:56;;;;;;;;;;;;;;;17.07;58.27;101248.69;4820577;29;1227;-69
2021/04/18 10:30:23;;;;;;;;;;;;;;;17.07;58.23;101251.31;4819096;29;1489;-69
2021/04/18 10:32:49;;;;;;;;;;;;;;;17.07;58.39;101243.41;4820557;29;1352;-71
2021/04/18 10:35:15;;;;;;;;;;;;;;;17.08;58.48;101245.13;4820389;29;860;-72
2021/04/18 10:37:42;;;;;;;;;;;;;;;17.07;58.55;101244.28;4820716;29;1359;-73
2021/04/18 10:40:08;;;;;;;;;;;;;;;17.08;58.61;101247.75;4820023;29;1313;-74
2021/04/18 10:42:34;;;;;;;;;;;;;;;17.08;58.50;101247.75;4819937;29;1974;-69
2021/04/18 10:45:01;;;;;;;;;;;;;;;17.07;58.51;101243.41;4819807;29;785;-69
2021/04/18 10:47:27;;;;;;;;;;;;;;;17.07;58.54;101252.16;4817591;29;1608;-70
2021/04/18 10:49:53;;;;;;;;;;;;;;;17.08;58.70;101250.41;4819440;29;729;-70
2021/04/18 10:52:22;;;;;;;;;;;;;;;17.07;58.64;101248.69;4819376;29;1359;-69
2021/04/18 10:54:48;;;;;;;;;;;;;;;17.08;58.73;101238.09;4819681;29;1244;-70
2021/04/18 10:57:14;;;;;;;;;;;;;;;17.08;58.53;101243.38;4818477;29;1560;-69
2021/04/18 10:59:40;;;;;;;;;;;;;;;17.09;58.47;101247.69;4818227;29;1145;-69
2021/04/18 11:02:07;;;;;;;;;;;;;;;17.08;58.45;101240.72;4818442;29;1264;-70
2021/04/18 11:04:33;;;;;;;;;;;;;;;17.09;58.10;101242.41;4817673;29;861;-69
2021/04/18 11:07:02;;;;;;;;;;;;;;;17.17;58.32;101242.13;4819311;29;1321;-68
2021/04/18 11:09:29;;;;;;;;;;;;;;;17.14;58.38;101242.25;4819077;29;1030;-68
2021/04/18 11:11:55;;;;;;;;;;;;;;;17.12;58.40;101238.78;4817136;29;1269;-70
2021/04/18 11:14:22;;;;;;;;;;;;;;;17.10;58.27;101246.78;4817249;29;1923;-67
2021/04/18 11:16:48;;;;;;;;;;;;;;;17.10;58.44;101240.66;4818909;29;1318;-67
2021/04/18 11:19:15;;;;;;;;;;;;;;;17.10;58.38;101238.88;4818765;29;802;-71
2021/04/18 11:21:42;;;;;;;;;;;;;;;17.12;57.76;101238.78;4818477;29;1293;-70
2021/04/18 11:24:08;;;;;;;;;;;;;;;17.20;58.16;101241.97;4819079;29;2048;-66
2021/04/18 11:26:34;;;;;;;;;;;;;;;17.20;57.69;101241.97;4819654;29;1403;-67
2021/04/18 11:29:02;;;;;;;;;;;;;;;17.22;58.59;101232.22;4818512;29;919;-68
2021/04/18 11:31:28;;;;;;;;;;;;;;;17.24;57.50;101235.63;4818453;29;1408;-67
2021/04/18 11:33:54;;;;;;;;;;;;;;;17.19;57.94;101232.38;4818983;29;888;-67
2021/04/18 11:36:21;;;;;;;;;;;;;;;17.17;57.75;101226.31;4817374;29;1294;-68
2021/04/18 11:38:49;;;;;;;;;;;;;;;17.17;57.74;101232.44;4818004;29;1207;-68
2021/04/18 11:41:33;;;;;;;;;;;;;;;17.18;57.60;101225.38;4819689;29;1401;-66
2021/04/18 11:44:01;;;;;;;;;;;;;;;17.17;57.71;101231.59;4818231;29;1911;-67
2021/04/18 11:46:30;;;;;;;;;;;;;;;17.17;57.60;101235.06;4819596;29;1286;-68
2021/04/18 11:48:57;;;;;;;;;;;;;;;17.16;57.63;101230.72;4819439;29;835;-67
2021/04/18 11:51:24;;;;;;;;;;;;;;;17.18;57.54;101225.38;4819148;29;1390;-68
2021/04/18 11:53:50;;;;;;;;;;;;;;;17.17;57.58;101227.19;4819457;29;776;-68
2021/04/18 11:56:16;;;;;;;;;;;;;;;17.19;57.69;101224.47;4818478;29;1420;-67
2021/04/18 11:58:43;;;;;;;;;;;;;;;17.19;57.44;101213.94;4822404;29;831;-70
2021/04/18 12:01:09;;;;;;;;;;;;;;;17.19;57.28;101224.47;4822220;29;1249;-68
2021/04/18 12:03:35;;;;;;;;;;;;;;;17.19;57.37;101209.53;4822192;29;1947;-70
2021/04/18 12:06:03;;;;;;;;;;;;;;;17.20;57.48;101218.28;4820983;29;1367;-69
2021/04/18 12:08:31;;;;;;;;;;;;;;;17.21;57.48;101212.06;4820984;29;886;-67
2021/04/18 12:10:58;;;;;;;;;;;;;;;17.22;57.46;101208.53;4805908;29;1169;-68
2021/04/18 12:13:25;;;;;;;;;;;;;;;17.23;57.48;101223.41;4821303;29;837;-69
2021/04/18 12:15:55;;;;;;;;;;;;;;;17.23;57.51;101216.38;4820657;29;1720;-69
2021/04/18 12:18:24;;;;;;;;;;;;;;;17.23;57.45;101216.38;4822133;29;873;-69
2021/04/18 12:20:50;;;;;;;;;;;;;;;17.24;57.14;101217.22;4822116;29;1077;-67
2021/04/18 12:23:22;;;;;;;;;;;;;;;17.25;57.13;101221.56;4820711;29;1993;-69
2021/04/18 12:25:49;;;;;;;;;;;;;;;17.25;57.10;101221.56;4822003;29;1847;-70
2021/04/18 12:28:15;;;;;;;;;;;;;;;17.25;57.10;101224.19;4819804;29;1652;-69
2021/04/18 12:30:42;;;;;;;;;;;;;;;17.26;57.33;101215.38;4822002;29;877;-68
2021/04/18 12:33:08;;;;;;;;;;;;;;;17.33;57.15;101216.81;4821225;29;1414;-66
2021/04/18 12:35:34;;;;;;;;;;;;;;;17.46;57.16;101204.81;4820809;29;809;-69
2021/04/18 12:38:01;;;;;;;;;;;;;;;17.45;57.30;101216.28;4821324;29;1604;-71
2021/04/18 12:40:27;;;;;;;;;;;;;;;17.47;57.22;101215.31;4817488;29;1287;-66
2021/04/18 12:42:53;;;;;;;;;;;;;;;17.45;56.81;101211.00;4819100;29;1907;-71
2021/04/18 12:45:19;;;;;;;;;;;;;;;17.39;57.08;101217.41;4821911;29;967;-69
2021/04/18 12:47:46;;;;;;;;;;;;;;;17.38;57.21;101204.31;4822141;29;1392;-68
2021/04/18 12:50:13;;;;;;;;;;;;;;;17.40;57.08;101198.06;4821599;29;761;-68
2021/04/18 12:52:41;;;;;;;;;;;;;;;17.41;56.54;101193.66;4822049;29;1288;-71
2021/04/18 12:55:08;;;;;;;;;;;;;;;17.41;55.87;101197.16;4821671;29;801;-67